sensor_id;sensor_type;location;lat;lon;timestamp;pressure;altitude;pressure_sealevel;temperature;humidity
19672;BME280;9983;51.114;13.788;2023-01-29T00:04:36;100572.16;;;1.59;86.56
19672;BME280;9983;51.114;13.788;2023-01-29T00:09:37;100576.66;;;1.27;83.82
19672;BME280;9983;51.114;13.788;2023-01-29T00:14:37;100566.53;;;0.73;85.78
19672;BME280;9983;51.114;13.788;2023-01-29T00:19:37;100558.44;;;1.22;85.29
19672;BME280;9983;51.114;13.788;2023-01-29T00:24:38;100550.44;;;1.24;83.73
19672;BME280;9983;51.114;13.788;2023-01-29T00:29:38;100550.13;;;1.14;83.46
19672;BME280;9983;51.114;13.788;2023-01-29T00:34:38;100543.19;;;0.82;85.88
19672;BME280;9983;51.114;13.788;2023-01-29T00:39:38;100541.47;;;1.26;84.04
19672;BME280;9983;51.114;13.788;2023-01-29T00:44:39;100529.00;;;1.28;84.10
19672;BME280;9983;51.114;13.788;2023-01-29T00:49:58;100535.44;;;1.24;83.22
19672;BME280;9983;51.114;13.788;2023-01-29T00:54:59;100535.00;;;1.46;85.11
19672;BME280;9983;51.114;13.788;2023-01-29T01:00:00;100540.88;;;1.21;82.88
19672;BME280;9983;51.114;13.788;2023-01-29T01:05:00;100554.22;;;1.04;82.80
19672;BME280;9983;51.114;13.788;2023-01-29T01:10:05;100546.34;;;1.18;82.21
19672;BME280;9983;51.114;13.788;2023-01-29T01:15:23;100546.94;;;0.77;82.71
19672;BME280;9983;51.114;13.788;2023-01-29T01:20:26;100544.50;;;1.34;84.49
19672;BME280;9983;51.114;13.788;2023-01-29T01:25:26;100532.19;;;1.19;82.40
19672;BME280;9983;51.114;13.788;2023-01-29T01:30:27;100531.88;;;1.39;84.23
19672;BME280;9983;51.114;13.788;2023-01-29T01:35:28;100538.47;;;1.32;80.21
19672;BME280;9983;51.114;13.788;2023-01-29T01:40:28;100538.81;;;0.96;81.59
19672;BME280;9983;51.114;13.788;2023-01-29T01:45:33;100525.84;;;1.37;81.88
19672;BME280;9983;51.114;13.788;2023-01-29T01:50:39;100519.97;;;0.72;81.13
19672;BME280;9983;51.114;13.788;2023-01-29T01:55:46;100526.53;;;0.65;81.25
19672;BME280;9983;51.114;13.788;2023-01-29T02:00:47;100528.56;;;0.45;81.52
19672;BME280;9983;51.114;13.788;2023-01-29T02:05:48;100525.06;;;0.60;82.14
19672;BME280;9983;51.114;13.788;2023-01-29T02:11:07;100508.75;;;0.99;80.40
19672;BME280;9983;51.114;13.788;2023-01-29T02:16:08;100498.63;;;0.30;81.40
19672;BME280;9983;51.114;13.788;2023-01-29T02:21:19;100499.28;;;0.18;83.67
19672;BME280;9983;51.114;13.788;2023-01-29T02:26:46;100499.78;;;0.71;82.62
19672;BME280;9983;51.114;13.788;2023-01-29T02:32:00;100510.84;;;-0.01;82.53
19672;BME280;9983;51.114;13.788;2023-01-29T02:37:09;100510.38;;;0.40;82.08
19672;BME280;9983;51.114;13.788;2023-01-29T02:47:35;100506.25;;;0.19;82.62
19672;BME280;9983;51.114;13.788;2023-01-29T02:52:48;100512.22;;;0.07;87.29
19672;BME280;9983;51.114;13.788;2023-01-29T02:57:59;100515.81;;;0.37;85.78
19672;BME280;9983;51.114;13.788;2023-01-29T03:03:07;100511.38;;;0.22;83.99
19672;BME280;9983;51.114;13.788;2023-01-29T03:08:14;100509.81;;;0.18;83.50
19672;BME280;9983;51.114;13.788;2023-01-29T03:13:27;100522.53;;;-0.22;84.15
19672;BME280;9983;51.114;13.788;2023-01-29T03:18:34;100519.28;;;-0.27;84.87
19672;BME280;9983;51.114;13.788;2023-01-29T03:23:39;100511.34;;;-0.10;87.15
19672;BME280;9983;51.114;13.788;2023-01-29T03:28:58;100500.75;;;0.08;84.10
19672;BME280;9983;51.114;13.788;2023-01-29T03:34:21;100508.81;;;0.05;82.38
19672;BME280;9983;51.114;13.788;2023-01-29T03:39:27;100509.78;;;-0.47;84.85
19672;BME280;9983;51.114;13.788;2023-01-29T04:00:08;100521.53;;;-0.69;85.26
19672;BME280;9983;51.114;13.788;2023-01-29T04:05:18;100510.94;;;-0.35;84.68
19672;BME280;9983;51.114;13.788;2023-01-29T04:10:23;100499.91;;;-0.26;84.61
19672;BME280;9983;51.114;13.788;2023-01-29T04:15:27;100498.19;;;-0.43;85.54
19672;BME280;9983;51.114;13.788;2023-01-29T04:20:29;100483.28;;;-0.77;85.07
19672;BME280;9983;51.114;13.788;2023-01-29T04:25:35;100467.56;;;-0.45;84.51
19672;BME280;9983;51.114;13.788;2023-01-29T04:30:47;100476.78;;;-1.04;85.71
19672;BME280;9983;51.114;13.788;2023-01-29T04:36:28;100459.53;;;-0.59;84.71
19672;BME280;9983;51.114;13.788;2023-01-29T04:41:44;100462.34;;;-0.80;85.25
19672;BME280;9983;51.114;13.788;2023-01-29T04:52:02;100451.38;;;-0.88;85.86
19672;BME280;9983;51.114;13.788;2023-01-29T04:57:17;100436.03;;;-0.80;84.94
19672;BME280;9983;51.114;13.788;2023-01-29T05:02:23;100425.19;;;-1.08;86.30
19672;BME280;9983;51.114;13.788;2023-01-29T05:07:24;100424.03;;;-0.52;86.10
19672;BME280;9983;51.114;13.788;2023-01-29T05:12:28;100417.22;;;-0.56;85.82
19672;BME280;9983;51.114;13.788;2023-01-29T05:17:30;100412.41;;;-0.48;83.24
19672;BME280;9983;51.114;13.788;2023-01-29T05:22:30;100414.06;;;-0.96;87.23
19672;BME280;9983;51.114;13.788;2023-01-29T05:27:33;100399.72;;;-0.57;86.62
19672;BME280;9983;51.114;13.788;2023-01-29T05:32:52;100402.75;;;-0.65;85.41
19672;BME280;9983;51.114;13.788;2023-01-29T05:37:54;100398.91;;;-1.42;88.03
19672;BME280;9983;51.114;13.788;2023-01-29T05:42:55;100399.81;;;-1.61;89.92
19672;BME280;9983;51.114;13.788;2023-01-29T05:47:56;100400.00;;;-1.29;89.27
19672;BME280;9983;51.114;13.788;2023-01-29T05:52:58;100392.78;;;-1.08;87.52
19672;BME280;9983;51.114;13.788;2023-01-29T05:57:58;100395.72;;;-1.32;88.10
19672;BME280;9983;51.114;13.788;2023-01-29T06:02:58;100404.00;;;-1.05;86.46
19672;BME280;9983;51.114;13.788;2023-01-29T06:07:59;100422.44;;;-1.22;89.79
19672;BME280;9983;51.114;13.788;2023-01-29T06:13:00;100406.88;;;-1.09;88.91
19672;BME280;9983;51.114;13.788;2023-01-29T06:18:00;100410.16;;;-0.89;87.11
19672;BME280;9983;51.114;13.788;2023-01-29T06:23:00;100434.97;;;-1.27;88.91
19672;BME280;9983;51.114;13.788;2023-01-29T06:28:00;100439.13;;;-1.06;87.81
19672;BME280;9983;51.114;13.788;2023-01-29T06:33:01;100444.25;;;-0.86;86.65
19672;BME280;9983;51.114;13.788;2023-01-29T06:38:01;100454.56;;;-0.65;84.95
19672;BME280;9983;51.114;13.788;2023-01-29T06:43:02;100465.47;;;-1.06;86.22
19672;BME280;9983;51.114;13.788;2023-01-29T06:48:02;100453.63;;;-0.47;85.42
19672;BME280;9983;51.114;13.788;2023-01-29T06:53:02;100466.63;;;-0.11;83.38
19672;BME280;9983;51.114;13.788;2023-01-29T06:58:07;100487.19;;;-0.18;83.02
19672;BME280;9983;51.114;13.788;2023-01-29T07:03:08;100499.66;;;-1.23;88.17
19672;BME280;9983;51.114;13.788;2023-01-29T07:08:08;100500.38;;;-0.68;86.59
19672;BME280;9983;51.114;13.788;2023-01-29T07:13:09;100513.38;;;-0.99;89.17
19672;BME280;9983;51.114;13.788;2023-01-29T07:18:09;100510.66;;;-1.15;90.10
19672;BME280;9983;51.114;13.788;2023-01-29T07:23:13;100510.28;;;-0.73;87.30
19672;BME280;9983;51.114;13.788;2023-01-29T07:28:17;100514.09;;;-0.96;89.82
19672;BME280;9983;51.114;13.788;2023-01-29T07:33:18;100491.06;;;-0.25;85.39
19672;BME280;9983;51.114;13.788;2023-01-29T07:38:18;100480.78;;;-0.14;85.86
19672;BME280;9983;51.114;13.788;2023-01-29T07:43:18;100486.34;;;-0.68;87.23
19672;BME280;9983;51.114;13.788;2023-01-29T07:48:19;100483.88;;;-0.39;86.21
19672;BME280;9983;51.114;13.788;2023-01-29T07:53:20;100473.94;;;-0.01;85.00
19672;BME280;9983;51.114;13.788;2023-01-29T07:58:20;100470.88;;;0.23;83.63
19672;BME280;9983;51.114;13.788;2023-01-29T08:03:20;100453.81;;;0.60;82.07
19672;BME280;9983;51.114;13.788;2023-01-29T08:08:20;100455.91;;;0.39;82.24
19672;BME280;9983;51.114;13.788;2023-01-29T08:13:21;100440.91;;;0.55;82.31
19672;BME280;9983;51.114;13.788;2023-01-29T08:18:21;100440.63;;;0.90;80.82
19672;BME280;9983;51.114;13.788;2023-01-29T08:23:21;100434.47;;;0.14;83.00
19672;BME280;9983;51.114;13.788;2023-01-29T08:28:21;100426.56;;;0.59;83.05
19672;BME280;9983;51.114;13.788;2023-01-29T08:33:22;100425.78;;;0.12;83.68
19672;BME280;9983;51.114;13.788;2023-01-29T08:38:22;100426.13;;;0.97;80.48
19672;BME280;9983;51.114;13.788;2023-01-29T08:43:22;100430.06;;;-0.02;83.65
19672;BME280;9983;51.114;13.788;2023-01-29T08:48:22;100449.44;;;0.29;84.93
19672;BME280;9983;51.114;13.788;2023-01-29T08:53:24;100448.44;;;0.61;82.67
19672;BME280;9983;51.114;13.788;2023-01-29T08:58:25;100439.84;;;1.18;80.12
19672;BME280;9983;51.114;13.788;2023-01-29T09:03:25;100432.81;;;1.32;79.12
19672;BME280;9983;51.114;13.788;2023-01-29T09:08:25;100413.75;;;0.83;81.79
19672;BME280;9983;51.114;13.788;2023-01-29T09:13:25;100414.31;;;0.13;84.28
19672;BME280;9983;51.114;13.788;2023-01-29T09:18:26;100425.59;;;0.46;85.40
19672;BME280;9983;51.114;13.788;2023-01-29T09:23:28;100424.06;;;0.42;84.27
19672;BME280;9983;51.114;13.788;2023-01-29T09:28:28;100401.59;;;0.35;84.99
19672;BME280;9983;51.114;13.788;2023-01-29T09:33:29;100410.81;;;0.28;85.97
19672;BME280;9983;51.114;13.788;2023-01-29T09:38:30;100417.50;;;1.37;81.45
19672;BME280;9983;51.114;13.788;2023-01-29T09:43:52;100408.41;;;0.99;82.63
19672;BME280;9983;51.114;13.788;2023-01-29T09:49:05;100403.69;;;0.90;83.00
19672;BME280;9983;51.114;13.788;2023-01-29T09:54:13;100394.66;;;1.08;82.81
19672;BME280;9983;51.114;13.788;2023-01-29T09:59:17;100386.44;;;1.27;80.21
19672;BME280;9983;51.114;13.788;2023-01-29T10:04:28;100364.81;;;0.77;84.35
19672;BME280;9983;51.114;13.788;2023-01-29T10:10:01;100362.34;;;0.74;84.85
19672;BME280;9983;51.114;13.788;2023-01-29T10:20:49;100371.06;;;1.19;82.90
19672;BME280;9983;51.114;13.788;2023-01-29T10:25:53;100376.94;;;0.36;86.75
19672;BME280;9983;51.114;13.788;2023-01-29T10:30:56;100381.56;;;0.76;83.36
19672;BME280;9983;51.114;13.788;2023-01-29T10:36:02;100374.69;;;0.44;86.57
19672;BME280;9983;51.114;13.788;2023-01-29T10:41:17;100372.31;;;0.69;86.04
19672;BME280;9983;51.114;13.788;2023-01-29T10:46:47;100370.22;;;0.60;85.98
19672;BME280;9983;51.114;13.788;2023-01-29T10:57:53;100327.50;;;0.98;85.02
19672;BME280;9983;51.114;13.788;2023-01-29T11:03:11;100322.78;;;1.31;84.13
19672;BME280;9983;51.114;13.788;2023-01-29T11:08:15;100319.00;;;0.79;85.77
19672;BME280;9983;51.114;13.788;2023-01-29T11:13:17;100305.78;;;0.93;86.21
19672;BME280;9983;51.114;13.788;2023-01-29T11:18:17;100303.91;;;1.37;84.22
19672;BME280;9983;51.114;13.788;2023-01-29T11:23:29;100286.00;;;1.14;85.47
19672;BME280;9983;51.114;13.788;2023-01-29T11:28:50;100276.00;;;1.87;82.60
19672;BME280;9983;51.114;13.788;2023-01-29T11:34:03;100270.03;;;1.71;83.59
19672;BME280;9983;51.114;13.788;2023-01-29T11:39:12;100260.91;;;2.28;80.11
19672;BME280;9983;51.114;13.788;2023-01-29T11:44:29;100278.00;;;1.57;83.55
19672;BME280;9983;51.114;13.788;2023-01-29T11:49:34;100261.13;;;2.25;81.05
19672;BME280;9983;51.114;13.788;2023-01-29T11:54:46;100258.34;;;1.61;84.00
19672;BME280;9983;51.114;13.788;2023-01-29T11:59:49;100256.88;;;1.57;83.68
19672;BME280;9983;51.114;13.788;2023-01-29T12:04:53;100237.56;;;1.69;84.09
19672;BME280;9983;51.114;13.788;2023-01-29T12:09:57;100230.00;;;2.16;83.51
19672;BME280;9983;51.114;13.788;2023-01-29T12:15:09;100229.94;;;1.91;83.34
19672;BME280;9983;51.114;13.788;2023-01-29T12:20:22;100206.06;;;2.31;82.16
19672;BME280;9983;51.114;13.788;2023-01-29T12:30:49;100173.25;;;3.44;76.80
19672;BME280;9983;51.114;13.788;2023-01-29T12:35:57;100180.63;;;2.91;79.28
19672;BME280;9983;51.114;13.788;2023-01-29T12:41:10;100189.16;;;2.58;81.63
19672;BME280;9983;51.114;13.788;2023-01-29T12:46:27;100184.00;;;2.93;79.69
19672;BME280;9983;51.114;13.788;2023-01-29T12:51:34;100169.53;;;3.23;79.54
19672;BME280;9983;51.114;13.788;2023-01-29T12:56:45;100179.19;;;2.62;81.66
19672;BME280;9983;51.114;13.788;2023-01-29T13:01:52;100168.59;;;2.62;82.27
19672;BME280;9983;51.114;13.788;2023-01-29T13:06:56;100160.47;;;3.01;80.63
19672;BME280;9983;51.114;13.788;2023-01-29T13:12:03;100151.00;;;2.74;81.70
19672;BME280;9983;51.114;13.788;2023-01-29T13:17:15;100141.59;;;3.54;79.20
19672;BME280;9983;51.114;13.788;2023-01-29T13:22:21;100132.59;;;3.09;78.20
19672;BME280;9983;51.114;13.788;2023-01-29T13:27:25;100134.06;;;2.76;80.54
19672;BME280;9983;51.114;13.788;2023-01-29T13:32:29;100132.44;;;2.24;83.05
19672;BME280;9983;51.114;13.788;2023-01-29T13:37:34;100134.78;;;3.15;80.22
19672;BME280;9983;51.114;13.788;2023-01-29T13:42:42;100146.91;;;2.93;81.01
19672;BME280;9983;51.114;13.788;2023-01-29T13:47:44;100142.25;;;2.22;83.83
19672;BME280;9983;51.114;13.788;2023-01-29T13:52:54;100145.09;;;2.45;84.45
19672;BME280;9983;51.114;13.788;2023-01-29T13:57:59;100129.66;;;1.88;87.46
19672;BME280;9983;51.114;13.788;2023-01-29T14:08:45;100115.69;;;2.24;86.69
19672;BME280;9983;51.114;13.788;2023-01-29T14:18:23;100136.88;;;2.24;85.96
19672;BME280;9983;51.114;13.788;2023-01-29T14:23:48;100116.63;;;2.10;86.74
19672;BME280;9983;51.114;13.788;2023-01-29T14:28:57;100110.81;;;2.31;85.91
19672;BME280;9983;51.114;13.788;2023-01-29T14:34:00;100109.56;;;1.98;87.92
19672;BME280;9983;51.114;13.788;2023-01-29T14:39:02;100110.72;;;2.19;86.43
19672;BME280;9983;51.114;13.788;2023-01-29T14:45:23;100122.88;;;2.35;87.45
19672;BME280;9983;51.114;13.788;2023-01-29T14:49:55;100119.22;;;2.74;84.91
19672;BME280;9983;51.114;13.788;2023-01-29T14:54:59;100125.22;;;2.26;87.02
19672;BME280;9983;51.114;13.788;2023-01-29T15:00:04;100112.94;;;2.51;86.43
19672;BME280;9983;51.114;13.788;2023-01-29T15:05:29;100120.50;;;2.68;85.34
19672;BME280;9983;51.114;13.788;2023-01-29T15:10:42;100117.25;;;2.52;85.31
19672;BME280;9983;51.114;13.788;2023-01-29T15:15:53;100112.50;;;2.57;84.63
19672;BME280;9983;51.114;13.788;2023-01-29T15:21:09;100100.59;;;2.75;84.92
19672;BME280;9983;51.114;13.788;2023-01-29T15:26:16;100102.78;;;1.94;88.27
19672;BME280;9983;51.114;13.788;2023-01-29T15:31:17;100100.25;;;2.05;87.03
19672;BME280;9983;51.114;13.788;2023-01-29T15:36:20;100105.31;;;2.21;87.24
19672;BME280;9983;51.114;13.788;2023-01-29T15:41:21;100087.22;;;2.40;86.55
19672;BME280;9983;51.114;13.788;2023-01-29T15:46:26;100087.75;;;1.95;89.40
19672;BME280;9983;51.114;13.788;2023-01-29T15:51:28;100073.56;;;2.34;86.22
19672;BME280;9983;51.114;13.788;2023-01-29T15:56:34;100074.75;;;2.17;86.28
19672;BME280;9983;51.114;13.788;2023-01-29T16:01:35;100080.34;;;1.87;86.49
19672;BME280;9983;51.114;13.788;2023-01-29T16:06:39;100079.72;;;1.71;89.59
19672;BME280;9983;51.114;13.788;2023-01-29T16:11:40;100079.72;;;1.71;91.44
19672;BME280;9983;51.114;13.788;2023-01-29T16:16:40;100067.22;;;1.60;89.78
19672;BME280;9983;51.114;13.788;2023-01-29T16:21:44;100064.50;;;2.25;86.62
19672;BME280;9983;51.114;13.788;2023-01-29T16:26:47;100055.94;;;1.83;89.32
19672;BME280;9983;51.114;13.788;2023-01-29T16:31:51;100050.13;;;1.91;89.87
19672;BME280;9983;51.114;13.788;2023-01-29T16:36:54;100050.28;;;2.26;86.36
19672;BME280;9983;51.114;13.788;2023-01-29T16:42:24;100042.25;;;1.51;90.68
19672;BME280;9983;51.114;13.788;2023-01-29T16:47:29;100039.09;;;1.59;91.26
19672;BME280;9983;51.114;13.788;2023-01-29T16:52:32;100036.34;;;1.86;89.83
19672;BME280;9983;51.114;13.788;2023-01-29T16:57:32;100029.78;;;1.53;89.44
19672;BME280;9983;51.114;13.788;2023-01-29T17:02:36;100023.88;;;2.01;88.53
19672;BME280;9983;51.114;13.788;2023-01-29T17:07:37;100026.53;;;1.88;88.97
19672;BME280;9983;51.114;13.788;2023-01-29T17:12:37;100025.97;;;1.45;91.08
19672;BME280;9983;51.114;13.788;2023-01-29T17:17:38;100027.28;;;1.65;90.64
19672;BME280;9983;51.114;13.788;2023-01-29T17:22:38;100028.31;;;1.87;88.59
19672;BME280;9983;51.114;13.788;2023-01-29T17:27:43;100017.34;;;1.81;89.57
19672;BME280;9983;51.114;13.788;2023-01-29T17:32:50;100021.50;;;1.20;90.06
19672;BME280;9983;51.114;13.788;2023-01-29T17:37:50;100023.25;;;1.72;88.65
19672;BME280;9983;51.114;13.788;2023-01-29T17:42:50;100009.72;;;1.89;87.08
19672;BME280;9983;51.114;13.788;2023-01-29T17:47:51;100010.66;;;1.63;88.44
19672;BME280;9983;51.114;13.788;2023-01-29T17:52:51;100010.47;;;1.66;86.91
19672;BME280;9983;51.114;13.788;2023-01-29T17:57:52;99998.41;;;1.62;87.68
19672;BME280;9983;51.114;13.788;2023-01-29T18:02:53;100003.34;;;1.16;88.24
19672;BME280;9983;51.114;13.788;2023-01-29T18:07:54;100004.19;;;1.16;87.39
19672;BME280;9983;51.114;13.788;2023-01-29T18:12:54;99989.63;;;1.86;84.28
19672;BME280;9983;51.114;13.788;2023-01-29T18:17:55;99986.63;;;2.04;83.17
19672;BME280;9983;51.114;13.788;2023-01-29T18:22:55;99980.13;;;1.59;84.66
19672;BME280;9983;51.114;13.788;2023-01-29T18:27:56;99962.16;;;1.38;84.64
19672;BME280;9983;51.114;13.788;2023-01-29T18:32:56;99965.53;;;1.66;85.03
19672;BME280;9983;51.114;13.788;2023-01-29T18:37:57;99965.09;;;1.21;86.11
19672;BME280;9983;51.114;13.788;2023-01-29T18:42:57;99953.66;;;1.08;87.46
19672;BME280;9983;51.114;13.788;2023-01-29T18:48:00;99952.22;;;1.17;86.84
19672;BME280;9983;51.114;13.788;2023-01-29T18:53:01;99938.06;;;1.30;85.61
19672;BME280;9983;51.114;13.788;2023-01-29T18:58:03;99939.09;;;1.66;84.40
19672;BME280;9983;51.114;13.788;2023-01-29T19:03:03;99919.84;;;0.88;86.76
19672;BME280;9983;51.114;13.788;2023-01-29T19:08:03;99914.56;;;0.88;86.02
19672;BME280;9983;51.114;13.788;2023-01-29T19:13:04;99907.81;;;0.84;85.89
19672;BME280;9983;51.114;13.788;2023-01-29T19:18:05;99902.31;;;1.12;85.32
19672;BME280;9983;51.114;13.788;2023-01-29T19:23:05;99908.63;;;0.84;86.67
19672;BME280;9983;51.114;13.788;2023-01-29T19:28:06;99891.59;;;0.75;87.95
19672;BME280;9983;51.114;13.788;2023-01-29T19:33:06;99891.13;;;0.83;85.41
19672;BME280;9983;51.114;13.788;2023-01-29T19:38:06;99892.78;;;0.71;87.35
19672;BME280;9983;51.114;13.788;2023-01-29T19:43:06;99886.69;;;0.84;87.46
19672;BME280;9983;51.114;13.788;2023-01-29T19:48:07;99871.88;;;0.29;88.53
19672;BME280;9983;51.114;13.788;2023-01-29T19:53:08;99876.13;;;0.84;86.02
19672;BME280;9983;51.114;13.788;2023-01-29T19:58:08;99875.19;;;0.45;88.15
19672;BME280;9983;51.114;13.788;2023-01-29T20:03:09;99875.06;;;0.73;87.06
19672;BME280;9983;51.114;13.788;2023-01-29T20:08:10;99880.19;;;0.23;89.00
19672;BME280;9983;51.114;13.788;2023-01-29T20:13:11;99876.59;;;0.24;87.54
19672;BME280;9983;51.114;13.788;2023-01-29T20:18:12;99879.19;;;0.38;87.54
19672;BME280;9983;51.114;13.788;2023-01-29T20:23:14;99876.69;;;0.49;85.81
19672;BME280;9983;51.114;13.788;2023-01-29T20:28:15;99873.91;;;0.38;86.81
19672;BME280;9983;51.114;13.788;2023-01-29T20:33:15;99865.72;;;0.55;86.34
19672;BME280;9983;51.114;13.788;2023-01-29T20:38:15;99863.00;;;0.69;85.27
19672;BME280;9983;51.114;13.788;2023-01-29T20:43:16;99852.56;;;0.28;85.27
19672;BME280;9983;51.114;13.788;2023-01-29T20:48:16;99842.59;;;0.07;85.40
19672;BME280;9983;51.114;13.788;2023-01-29T20:53:16;99855.59;;;0.49;84.78
19672;BME280;9983;51.114;13.788;2023-01-29T20:58:16;99838.72;;;0.64;84.10
19672;BME280;9983;51.114;13.788;2023-01-29T21:03:17;99838.69;;;0.52;84.21
19672;BME280;9983;51.114;13.788;2023-01-29T21:08:17;99824.53;;;0.40;84.73
19672;BME280;9983;51.114;13.788;2023-01-29T21:13:17;99803.47;;;0.65;81.72
19672;BME280;9983;51.114;13.788;2023-01-29T21:18:18;99791.66;;;0.84;80.86
19672;BME280;9983;51.114;13.788;2023-01-29T21:23:18;99777.28;;;0.62;82.03
19672;BME280;9983;51.114;13.788;2023-01-29T21:28:19;99784.28;;;0.11;84.88
19672;BME280;9983;51.114;13.788;2023-01-29T21:33:19;99778.91;;;0.13;84.98
19672;BME280;9983;51.114;13.788;2023-01-29T21:38:19;99773.44;;;0.16;83.28
19672;BME280;9983;51.114;13.788;2023-01-29T21:43:20;99772.03;;;-0.29;84.29
19672;BME280;9983;51.114;13.788;2023-01-29T21:48:20;99764.19;;;0.61;81.08
19672;BME280;9983;51.114;13.788;2023-01-29T21:53:21;99748.97;;;0.14;82.87
19672;BME280;9983;51.114;13.788;2023-01-29T21:58:21;99738.28;;;0.03;82.53
19672;BME280;9983;51.114;13.788;2023-01-29T22:03:21;99711.16;;;0.00;84.10
19672;BME280;9983;51.114;13.788;2023-01-29T22:08:22;99707.88;;;0.49;81.38
19672;BME280;9983;51.114;13.788;2023-01-29T22:13:22;99693.91;;;0.09;83.68
19672;BME280;9983;51.114;13.788;2023-01-29T22:18:22;99675.16;;;0.39;81.97
19672;BME280;9983;51.114;13.788;2023-01-29T22:23:23;99678.06;;;0.09;81.28
19672;BME280;9983;51.114;13.788;2023-01-29T22:28:23;99658.88;;;-0.06;82.96
19672;BME280;9983;51.114;13.788;2023-01-29T22:33:24;99647.50;;;-0.19;84.04
19672;BME280;9983;51.114;13.788;2023-01-29T22:38:24;99621.75;;;-0.28;84.44
19672;BME280;9983;51.114;13.788;2023-01-29T22:43:25;99634.59;;;-0.36;85.79
19672;BME280;9983;51.114;13.788;2023-01-29T22:48:25;99604.91;;;0.13;83.55
19672;BME280;9983;51.114;13.788;2023-01-29T22:53:27;99597.53;;;0.05;82.83
19672;BME280;9983;51.114;13.788;2023-01-29T22:58:27;99585.50;;;0.26;82.42
19672;BME280;9983;51.114;13.788;2023-01-29T23:03:27;99585.09;;;-0.06;84.06
19672;BME280;9983;51.114;13.788;2023-01-29T23:08:28;99577.69;;;-0.51;85.62
19672;BME280;9983;51.114;13.788;2023-01-29T23:13:28;99566.75;;;0.06;84.62
19672;BME280;9983;51.114;13.788;2023-01-29T23:18:28;99555.72;;;0.37;83.55
19672;BME280;9983;51.114;13.788;2023-01-29T23:23:30;99553.69;;;-0.09;83.58
19672;BME280;9983;51.114;13.788;2023-01-29T23:28:30;99549.97;;;0.32;82.12
19672;BME280;9983;51.114;13.788;2023-01-29T23:33:30;99538.47;;;0.33;82.36
19672;BME280;9983;51.114;13.788;2023-01-29T23:38:31;99525.56;;;0.41;81.72
19672;BME280;9983;51.114;13.788;2023-01-29T23:43:31;99512.25;;;0.43;81.83
19672;BME280;9983;51.114;13.788;2023-01-29T23:48:32;99488.47;;;0.19;82.91
19672;BME280;9983;51.114;13.788;2023-01-29T23:53:33;99487.06;;;-0.11;84.56
19672;BME280;9983;51.114;13.788;2023-01-29T23:58:33;99481.91;;;0.37;82.48
